sensor_id;sensor_type;location;lat;lon;timestamp;P1;durP1;ratioP1;P2;durP2;ratioP2
44774;SDS011;31340;51.402;0.016;2023-03-03T00:01:11;9.45;;;5.03;;
44774;SDS011;31340;51.402;0.016;2023-03-03T00:03:39;11.15;;;5.50;;
44774;SDS011;31340;51.402;0.016;2023-03-03T00:06:08;13.20;;;5.75;;
44774;SDS011;31340;51.402;0.016;2023-03-03T00:08:42;14.80;;;8.13;;
44774;SDS011;31340;51.402;0.016;2023-03-03T00:11:10;13.20;;;5.80;;
44774;SDS011;31340;51.402;0.016;2023-03-03T00:13:51;13.77;;;6.45;;
44774;SDS011;31340;51.402;0.016;2023-03-03T00:18:54;17.00;;;9.60;;
44774;SDS011;31340;51.402;0.016;2023-03-03T00:21:24;18.23;;;12.43;;
44774;SDS011;31340;51.402;0.016;2023-03-03T00:23:52;15.40;;;8.48;;
44774;SDS011;31340;51.402;0.016;2023-03-03T00:26:23;11.27;;;6.35;;
44774;SDS011;31340;51.402;0.016;2023-03-03T00:28:57;11.13;;;5.43;;
44774;SDS011;31340;51.402;0.016;2023-03-03T00:31:30;10.57;;;5.38;;
44774;SDS011;31340;51.402;0.016;2023-03-03T00:36:43;10.40;;;5.40;;
44774;SDS011;31340;51.402;0.016;2023-03-03T00:41:45;9.80;;;5.40;;
44774;SDS011;31340;51.402;0.016;2023-03-03T00:44:30;11.55;;;5.57;;
44774;SDS011;31340;51.402;0.016;2023-03-03T00:52:36;14.18;;;5.63;;
44774;SDS011;31340;51.402;0.016;2023-03-03T00:55:06;11.63;;;6.63;;
44774;SDS011;31340;51.402;0.016;2023-03-03T00:57:34;10.85;;;5.55;;
44774;SDS011;31340;51.402;0.016;2023-03-03T01:00:05;10.63;;;6.37;;
44774;SDS011;31340;51.402;0.016;2023-03-03T01:02:33;13.18;;;5.95;;
44774;SDS011;31340;51.402;0.016;2023-03-03T01:05:01;9.43;;;5.63;;
44774;SDS011;31340;51.402;0.016;2023-03-03T01:07:28;12.43;;;5.93;;
44774;SDS011;31340;51.402;0.016;2023-03-03T01:09:56;10.15;;;5.55;;
44774;SDS011;31340;51.402;0.016;2023-03-03T01:12:24;11.25;;;5.60;;
44774;SDS011;31340;51.402;0.016;2023-03-03T01:14:52;12.43;;;5.95;;
44774;SDS011;31340;51.402;0.016;2023-03-03T01:17:21;16.38;;;6.40;;
44774;SDS011;31340;51.402;0.016;2023-03-03T01:19:49;12.10;;;5.95;;
44774;SDS011;31340;51.402;0.016;2023-03-03T01:22:17;12.43;;;6.38;;
44774;SDS011;31340;51.402;0.016;2023-03-03T01:24:44;13.70;;;5.90;;
44774;SDS011;31340;51.402;0.016;2023-03-03T01:27:12;15.27;;;6.10;;
44774;SDS011;31340;51.402;0.016;2023-03-03T01:29:39;12.00;;;6.05;;
44774;SDS011;31340;51.402;0.016;2023-03-03T01:32:07;16.27;;;6.95;;
44774;SDS011;31340;51.402;0.016;2023-03-03T01:34:35;12.13;;;6.53;;
44774;SDS011;31340;51.402;0.016;2023-03-03T01:37:02;11.77;;;6.38;;
44774;SDS011;31340;51.402;0.016;2023-03-03T01:39:29;14.68;;;6.63;;
44774;SDS011;31340;51.402;0.016;2023-03-03T01:41:57;16.80;;;7.07;;
44774;SDS011;31340;51.402;0.016;2023-03-03T01:44:25;14.10;;;6.50;;
44774;SDS011;31340;51.402;0.016;2023-03-03T01:49:55;12.32;;;6.68;;
44774;SDS011;31340;51.402;0.016;2023-03-03T01:52:31;14.90;;;6.57;;
44774;SDS011;31340;51.402;0.016;2023-03-03T01:55:03;14.75;;;6.55;;
44774;SDS011;31340;51.402;0.016;2023-03-03T01:57:55;15.38;;;6.97;;
44774;SDS011;31340;51.402;0.016;2023-03-03T02:00:27;11.25;;;6.20;;
44774;SDS011;31340;51.402;0.016;2023-03-03T02:02:57;17.95;;;6.75;;
44774;SDS011;31340;51.402;0.016;2023-03-03T02:05:25;14.98;;;6.75;;
44774;SDS011;31340;51.402;0.016;2023-03-03T02:07:54;13.70;;;6.07;;
44774;SDS011;31340;51.402;0.016;2023-03-03T02:10:21;13.48;;;6.57;;
44774;SDS011;31340;51.402;0.016;2023-03-03T02:12:56;13.90;;;7.20;;
44774;SDS011;31340;51.402;0.016;2023-03-03T02:15:28;17.50;;;7.47;;
44774;SDS011;31340;51.402;0.016;2023-03-03T02:18:05;17.65;;;6.65;;
44774;SDS011;31340;51.402;0.016;2023-03-03T02:26:25;16.60;;;7.63;;
44774;SDS011;31340;51.402;0.016;2023-03-03T02:29:00;13.77;;;7.03;;
44774;SDS011;31340;51.402;0.016;2023-03-03T02:31:29;17.70;;;7.88;;
44774;SDS011;31340;51.402;0.016;2023-03-03T02:33:58;11.88;;;7.13;;
44774;SDS011;31340;51.402;0.016;2023-03-03T02:36:28;13.35;;;7.75;;
44774;SDS011;31340;51.402;0.016;2023-03-03T02:41:39;15.38;;;7.53;;
44774;SDS011;31340;51.402;0.016;2023-03-03T02:44:35;17.23;;;8.05;;
44774;SDS011;31340;51.402;0.016;2023-03-03T02:47:03;17.13;;;7.65;;
44774;SDS011;31340;51.402;0.016;2023-03-03T02:49:32;12.60;;;6.97;;
44774;SDS011;31340;51.402;0.016;2023-03-03T02:52:04;14.82;;;8.27;;
44774;SDS011;31340;51.402;0.016;2023-03-03T02:54:37;14.10;;;7.72;;
44774;SDS011;31340;51.402;0.016;2023-03-03T02:57:06;15.80;;;7.85;;
44774;SDS011;31340;51.402;0.016;2023-03-03T02:59:35;15.30;;;7.80;;
44774;SDS011;31340;51.402;0.016;2023-03-03T03:02:09;15.77;;;7.63;;
44774;SDS011;31340;51.402;0.016;2023-03-03T03:04:37;14.98;;;7.72;;
44774;SDS011;31340;51.402;0.016;2023-03-03T03:07:05;12.40;;;7.25;;
44774;SDS011;31340;51.402;0.016;2023-03-03T03:09:36;16.02;;;7.63;;
44774;SDS011;31340;51.402;0.016;2023-03-03T03:12:03;14.27;;;8.95;;
44774;SDS011;31340;51.402;0.016;2023-03-03T03:14:34;17.02;;;8.60;;
44774;SDS011;31340;51.402;0.016;2023-03-03T03:17:04;13.68;;;8.25;;
44774;SDS011;31340;51.402;0.016;2023-03-03T03:19:32;15.73;;;8.32;;
44774;SDS011;31340;51.402;0.016;2023-03-03T03:22:01;15.50;;;8.20;;
44774;SDS011;31340;51.402;0.016;2023-03-03T03:24:32;13.68;;;8.05;;
44774;SDS011;31340;51.402;0.016;2023-03-03T03:27:04;16.55;;;8.75;;
44774;SDS011;31340;51.402;0.016;2023-03-03T03:29:32;18.00;;;9.07;;
44774;SDS011;31340;51.402;0.016;2023-03-03T03:32:00;14.82;;;8.13;;
44774;SDS011;31340;51.402;0.016;2023-03-03T03:34:28;14.98;;;8.48;;
44774;SDS011;31340;51.402;0.016;2023-03-03T03:36:56;15.48;;;8.38;;
44774;SDS011;31340;51.402;0.016;2023-03-03T03:39:26;17.92;;;8.10;;
44774;SDS011;31340;51.402;0.016;2023-03-03T03:41:55;16.67;;;8.32;;
44774;SDS011;31340;51.402;0.016;2023-03-03T03:44:23;16.95;;;7.78;;
44774;SDS011;31340;51.402;0.016;2023-03-03T03:46:51;15.88;;;8.50;;
44774;SDS011;31340;51.402;0.016;2023-03-03T03:49:20;20.20;;;8.38;;
44774;SDS011;31340;51.402;0.016;2023-03-03T03:51:49;13.15;;;7.95;;
44774;SDS011;31340;51.402;0.016;2023-03-03T03:54:20;14.77;;;7.60;;
44774;SDS011;31340;51.402;0.016;2023-03-03T03:56:49;15.35;;;8.20;;
44774;SDS011;31340;51.402;0.016;2023-03-03T03:59:17;15.15;;;8.35;;
44774;SDS011;31340;51.402;0.016;2023-03-03T04:01:45;14.73;;;7.97;;
44774;SDS011;31340;51.402;0.016;2023-03-03T04:04:14;14.57;;;8.05;;
44774;SDS011;31340;51.402;0.016;2023-03-03T04:06:42;14.63;;;7.97;;
44774;SDS011;31340;51.402;0.016;2023-03-03T04:09:11;10.95;;;7.57;;
44774;SDS011;31340;51.402;0.016;2023-03-03T04:11:39;14.65;;;8.50;;
44774;SDS011;31340;51.402;0.016;2023-03-03T04:14:08;16.17;;;7.78;;
44774;SDS011;31340;51.402;0.016;2023-03-03T04:16:36;12.43;;;7.25;;
44774;SDS011;31340;51.402;0.016;2023-03-03T04:19:05;14.30;;;7.82;;
44774;SDS011;31340;51.402;0.016;2023-03-03T04:21:35;18.20;;;8.80;;
44774;SDS011;31340;51.402;0.016;2023-03-03T04:24:03;12.65;;;7.50;;
44774;SDS011;31340;51.402;0.016;2023-03-03T04:26:31;14.75;;;7.63;;
44774;SDS011;31340;51.402;0.016;2023-03-03T04:29:01;12.10;;;7.85;;
44774;SDS011;31340;51.402;0.016;2023-03-03T04:31:29;16.52;;;8.38;;
44774;SDS011;31340;51.402;0.016;2023-03-03T04:33:57;19.42;;;8.07;;
44774;SDS011;31340;51.402;0.016;2023-03-03T04:36:26;11.95;;;7.85;;
44774;SDS011;31340;51.402;0.016;2023-03-03T04:38:54;13.88;;;8.10;;
44774;SDS011;31340;51.402;0.016;2023-03-03T04:41:22;13.20;;;6.65;;
44774;SDS011;31340;51.402;0.016;2023-03-03T04:43:50;13.23;;;7.15;;
44774;SDS011;31340;51.402;0.016;2023-03-03T04:46:18;12.02;;;7.25;;
44774;SDS011;31340;51.402;0.016;2023-03-03T04:48:46;11.77;;;6.65;;
44774;SDS011;31340;51.402;0.016;2023-03-03T04:51:15;11.63;;;6.70;;
44774;SDS011;31340;51.402;0.016;2023-03-03T04:53:44;14.45;;;7.07;;
44774;SDS011;31340;51.402;0.016;2023-03-03T04:56:13;13.23;;;6.68;;
44774;SDS011;31340;51.402;0.016;2023-03-03T04:58:41;13.88;;;6.55;;
44774;SDS011;31340;51.402;0.016;2023-03-03T05:01:11;13.55;;;6.40;;
44774;SDS011;31340;51.402;0.016;2023-03-03T05:03:41;11.52;;;6.47;;
44774;SDS011;31340;51.402;0.016;2023-03-03T05:06:09;16.20;;;6.85;;
44774;SDS011;31340;51.402;0.016;2023-03-03T05:08:36;14.70;;;7.00;;
44774;SDS011;31340;51.402;0.016;2023-03-03T05:11:09;12.68;;;7.38;;
44774;SDS011;31340;51.402;0.016;2023-03-03T05:13:36;13.05;;;7.10;;
44774;SDS011;31340;51.402;0.016;2023-03-03T05:16:04;14.23;;;6.95;;
44774;SDS011;31340;51.402;0.016;2023-03-03T05:18:31;14.48;;;6.43;;
44774;SDS011;31340;51.402;0.016;2023-03-03T05:20:59;11.10;;;6.53;;
44774;SDS011;31340;51.402;0.016;2023-03-03T05:23:27;9.32;;;6.15;;
44774;SDS011;31340;51.402;0.016;2023-03-03T05:25:54;11.13;;;6.85;;
44774;SDS011;31340;51.402;0.016;2023-03-03T05:28:22;12.45;;;6.93;;
44774;SDS011;31340;51.402;0.016;2023-03-03T05:30:49;10.35;;;6.50;;
44774;SDS011;31340;51.402;0.016;2023-03-03T05:33:17;11.70;;;5.82;;
44774;SDS011;31340;51.402;0.016;2023-03-03T05:35:45;10.68;;;6.32;;
44774;SDS011;31340;51.402;0.016;2023-03-03T05:38:12;14.60;;;5.97;;
44774;SDS011;31340;51.402;0.016;2023-03-03T05:40:40;11.77;;;6.10;;
44774;SDS011;31340;51.402;0.016;2023-03-03T05:43:07;10.48;;;5.90;;
44774;SDS011;31340;51.402;0.016;2023-03-03T05:45:35;10.65;;;5.70;;
44774;SDS011;31340;51.402;0.016;2023-03-03T05:48:02;15.65;;;5.60;;
44774;SDS011;31340;51.402;0.016;2023-03-03T05:50:30;14.00;;;5.22;;
44774;SDS011;31340;51.402;0.016;2023-03-03T05:52:58;7.95;;;4.93;;
44774;SDS011;31340;51.402;0.016;2023-03-03T05:55:26;10.55;;;5.28;;
44774;SDS011;31340;51.402;0.016;2023-03-03T05:57:54;9.82;;;4.90;;
44774;SDS011;31340;51.402;0.016;2023-03-03T06:00:22;11.80;;;5.57;;
44774;SDS011;31340;51.402;0.016;2023-03-03T06:02:49;9.90;;;4.72;;
44774;SDS011;31340;51.402;0.016;2023-03-03T06:05:17;11.32;;;5.00;;
44774;SDS011;31340;51.402;0.016;2023-03-03T06:07:45;9.48;;;5.47;;
44774;SDS011;31340;51.402;0.016;2023-03-03T06:10:12;10.00;;;5.43;;
44774;SDS011;31340;51.402;0.016;2023-03-03T06:12:44;10.38;;;5.15;;
44774;SDS011;31340;51.402;0.016;2023-03-03T06:15:12;14.05;;;5.00;;
44774;SDS011;31340;51.402;0.016;2023-03-03T06:17:39;8.63;;;4.72;;
44774;SDS011;31340;51.402;0.016;2023-03-03T06:20:07;14.25;;;6.22;;
44774;SDS011;31340;51.402;0.016;2023-03-03T06:22:36;11.02;;;5.47;;
44774;SDS011;31340;51.402;0.016;2023-03-03T06:25:04;10.23;;;5.03;;
44774;SDS011;31340;51.402;0.016;2023-03-03T06:27:32;10.55;;;5.35;;
44774;SDS011;31340;51.402;0.016;2023-03-03T06:30:00;12.25;;;4.55;;
44774;SDS011;31340;51.402;0.016;2023-03-03T06:32:28;9.55;;;5.07;;
44774;SDS011;31340;51.402;0.016;2023-03-03T06:34:55;13.52;;;5.40;;
44774;SDS011;31340;51.402;0.016;2023-03-03T06:37:23;10.10;;;5.80;;
44774;SDS011;31340;51.402;0.016;2023-03-03T06:39:51;10.40;;;5.05;;
44774;SDS011;31340;51.402;0.016;2023-03-03T06:42:19;10.95;;;4.93;;
44774;SDS011;31340;51.402;0.016;2023-03-03T06:44:47;8.57;;;4.70;;
44774;SDS011;31340;51.402;0.016;2023-03-03T06:47:15;10.57;;;4.80;;
44774;SDS011;31340;51.402;0.016;2023-03-03T06:49:43;9.60;;;5.38;;
44774;SDS011;31340;51.402;0.016;2023-03-03T06:52:11;11.13;;;4.93;;
44774;SDS011;31340;51.402;0.016;2023-03-03T06:54:41;11.35;;;4.63;;
44774;SDS011;31340;51.402;0.016;2023-03-03T06:57:25;14.48;;;4.97;;
44774;SDS011;31340;51.402;0.016;2023-03-03T07:03:01;8.68;;;4.35;;
44774;SDS011;31340;51.402;0.016;2023-03-03T07:05:34;17.33;;;6.32;;
44774;SDS011;31340;51.402;0.016;2023-03-03T07:08:02;11.20;;;5.25;;
44774;SDS011;31340;51.402;0.016;2023-03-03T07:10:33;13.05;;;6.30;;
44774;SDS011;31340;51.402;0.016;2023-03-03T07:13:22;10.90;;;5.05;;
44774;SDS011;31340;51.402;0.016;2023-03-03T07:15:50;8.10;;;4.43;;
44774;SDS011;31340;51.402;0.016;2023-03-03T07:20:55;17.88;;;5.63;;
44774;SDS011;31340;51.402;0.016;2023-03-03T07:23:24;12.60;;;5.22;;
44774;SDS011;31340;51.402;0.016;2023-03-03T07:28:26;9.20;;;4.75;;
44774;SDS011;31340;51.402;0.016;2023-03-03T07:30:56;13.75;;;6.03;;
44774;SDS011;31340;51.402;0.016;2023-03-03T07:33:25;13.05;;;4.95;;
44774;SDS011;31340;51.402;0.016;2023-03-03T07:35:55;12.05;;;4.55;;
44774;SDS011;31340;51.402;0.016;2023-03-03T07:38:28;10.10;;;4.73;;
44774;SDS011;31340;51.402;0.016;2023-03-03T07:41:00;8.93;;;5.07;;
44774;SDS011;31340;51.402;0.016;2023-03-03T07:43:37;9.45;;;5.38;;
44774;SDS011;31340;51.402;0.016;2023-03-03T07:48:38;11.77;;;5.53;;
44774;SDS011;31340;51.402;0.016;2023-03-03T07:51:12;11.65;;;4.95;;
44774;SDS011;31340;51.402;0.016;2023-03-03T07:53:48;10.55;;;4.70;;
44774;SDS011;31340;51.402;0.016;2023-03-03T07:56:27;8.35;;;4.80;;
44774;SDS011;31340;51.402;0.016;2023-03-03T07:59:02;12.20;;;4.40;;
44774;SDS011;31340;51.402;0.016;2023-03-03T08:01:51;16.25;;;4.90;;
44774;SDS011;31340;51.402;0.016;2023-03-03T08:07:10;8.63;;;4.60;;
44774;SDS011;31340;51.402;0.016;2023-03-03T08:09:51;10.98;;;4.93;;
44774;SDS011;31340;51.402;0.016;2023-03-03T08:12:28;12.23;;;5.47;;
44774;SDS011;31340;51.402;0.016;2023-03-03T08:15:17;13.25;;;5.60;;
44774;SDS011;31340;51.402;0.016;2023-03-03T08:17:51;13.90;;;5.80;;
44774;SDS011;31340;51.402;0.016;2023-03-03T08:23:19;14.07;;;6.63;;
44774;SDS011;31340;51.402;0.016;2023-03-03T08:25:47;12.85;;;5.53;;
44774;SDS011;31340;51.402;0.016;2023-03-03T08:28:16;16.83;;;5.47;;
44774;SDS011;31340;51.402;0.016;2023-03-03T08:30:44;13.45;;;6.03;;
44774;SDS011;31340;51.402;0.016;2023-03-03T08:33:12;11.38;;;4.80;;
44774;SDS011;31340;51.402;0.016;2023-03-03T08:35:40;9.82;;;4.82;;
44774;SDS011;31340;51.402;0.016;2023-03-03T08:38:09;15.57;;;7.38;;
44774;SDS011;31340;51.402;0.016;2023-03-03T08:40:37;15.70;;;4.90;;
44774;SDS011;31340;51.402;0.016;2023-03-03T08:43:05;10.68;;;5.50;;
44774;SDS011;31340;51.402;0.016;2023-03-03T08:45:33;12.15;;;6.35;;
44774;SDS011;31340;51.402;0.016;2023-03-03T08:48:02;13.07;;;5.75;;
44774;SDS011;31340;51.402;0.016;2023-03-03T08:50:32;11.38;;;5.32;;
44774;SDS011;31340;51.402;0.016;2023-03-03T08:53:00;20.05;;;5.60;;
44774;SDS011;31340;51.402;0.016;2023-03-03T08:55:27;12.90;;;5.85;;
44774;SDS011;31340;51.402;0.016;2023-03-03T08:57:55;11.48;;;6.05;;
44774;SDS011;31340;51.402;0.016;2023-03-03T09:00:22;17.73;;;7.57;;
44774;SDS011;31340;51.402;0.016;2023-03-03T09:02:50;12.13;;;5.47;;
44774;SDS011;31340;51.402;0.016;2023-03-03T09:05:19;17.15;;;5.80;;
44774;SDS011;31340;51.402;0.016;2023-03-03T09:07:48;11.90;;;6.03;;
44774;SDS011;31340;51.402;0.016;2023-03-03T09:10:18;13.77;;;5.70;;
44774;SDS011;31340;51.402;0.016;2023-03-03T09:12:53;12.00;;;5.50;;
44774;SDS011;31340;51.402;0.016;2023-03-03T09:17:54;16.23;;;5.57;;
44774;SDS011;31340;51.402;0.016;2023-03-03T09:20:38;11.55;;;6.72;;
44774;SDS011;31340;51.402;0.016;2023-03-03T09:23:24;14.43;;;5.53;;
44774;SDS011;31340;51.402;0.016;2023-03-03T09:25:56;13.98;;;5.28;;
44774;SDS011;31340;51.402;0.016;2023-03-03T09:28:43;16.52;;;5.90;;
44774;SDS011;31340;51.402;0.016;2023-03-03T09:39:46;9.63;;;5.15;;
44774;SDS011;31340;51.402;0.016;2023-03-03T09:47:43;10.48;;;5.30;;
44774;SDS011;31340;51.402;0.016;2023-03-03T09:53:09;12.00;;;4.50;;
44774;SDS011;31340;51.402;0.016;2023-03-03T10:04:43;11.40;;;3.28;;
44774;SDS011;31340;51.402;0.016;2023-03-03T10:07:34;5.75;;;3.45;;
44774;SDS011;31340;51.402;0.016;2023-03-03T10:13:40;10.85;;;3.90;;
44774;SDS011;31340;51.402;0.016;2023-03-03T10:16:33;11.13;;;3.60;;
44774;SDS011;31340;51.402;0.016;2023-03-03T10:22:16;8.65;;;2.70;;
44774;SDS011;31340;51.402;0.016;2023-03-03T10:27:57;6.22;;;3.20;;
44774;SDS011;31340;51.402;0.016;2023-03-03T10:34:09;8.63;;;2.65;;
44774;SDS011;31340;51.402;0.016;2023-03-03T10:47:53;8.15;;;3.65;;
44774;SDS011;31340;51.402;0.016;2023-03-03T10:51:00;4.72;;;3.00;;
44774;SDS011;31340;51.402;0.016;2023-03-03T10:56:21;9.50;;;3.10;;
44774;SDS011;31340;51.402;0.016;2023-03-03T11:05:28;7.53;;;3.47;;
44774;SDS011;31340;51.402;0.016;2023-03-03T11:08:11;5.32;;;2.88;;
44774;SDS011;31340;51.402;0.016;2023-03-03T11:10:51;10.43;;;3.50;;
44774;SDS011;31340;51.402;0.016;2023-03-03T11:16:15;11.35;;;2.90;;
44774;SDS011;31340;51.402;0.016;2023-03-03T11:22:03;5.90;;;3.25;;
44774;SDS011;31340;51.402;0.016;2023-03-03T11:33:17;6.10;;;2.97;;
44774;SDS011;31340;51.402;0.016;2023-03-03T11:41:29;10.27;;;2.90;;
44774;SDS011;31340;51.402;0.016;2023-03-03T11:44:16;7.07;;;2.85;;
44774;SDS011;31340;51.402;0.016;2023-03-03T11:46:59;8.20;;;3.38;;
44774;SDS011;31340;51.402;0.016;2023-03-03T11:55:14;6.40;;;2.30;;
44774;SDS011;31340;51.402;0.016;2023-03-03T11:57:56;9.55;;;3.42;;
44774;SDS011;31340;51.402;0.016;2023-03-03T12:00:40;6.97;;;2.50;;
44774;SDS011;31340;51.402;0.016;2023-03-03T12:06:37;4.35;;;1.90;;
44774;SDS011;31340;51.402;0.016;2023-03-03T12:25:42;4.22;;;1.70;;
44774;SDS011;31340;51.402;0.016;2023-03-03T12:28:27;5.80;;;2.08;;
44774;SDS011;31340;51.402;0.016;2023-03-03T12:31:06;6.30;;;1.70;;
44774;SDS011;31340;51.402;0.016;2023-03-03T12:36:12;4.00;;;1.60;;
44774;SDS011;31340;51.402;0.016;2023-03-03T12:47:04;5.50;;;1.40;;
44774;SDS011;31340;51.402;0.016;2023-03-03T12:49:45;7.00;;;1.73;;
44774;SDS011;31340;51.402;0.016;2023-03-03T12:52:45;3.42;;;1.55;;
44774;SDS011;31340;51.402;0.016;2023-03-03T12:58:21;4.32;;;1.10;;
44774;SDS011;31340;51.402;0.016;2023-03-03T13:01:38;6.63;;;1.13;;
44774;SDS011;31340;51.402;0.016;2023-03-03T13:03:41;3.08;;;1.10;;
44774;SDS011;31340;51.402;0.016;2023-03-03T13:06:29;6.00;;;1.02;;
44774;SDS011;31340;51.402;0.016;2023-03-03T13:14:36;12.40;;;1.63;;
44774;SDS011;31340;51.402;0.016;2023-03-03T13:19:57;6.10;;;1.50;;
44774;SDS011;31340;51.402;0.016;2023-03-03T13:22:30;8.40;;;1.40;;
44774;SDS011;31340;51.402;0.016;2023-03-03T13:28:10;3.45;;;1.15;;
44774;SDS011;31340;51.402;0.016;2023-03-03T13:31:00;4.00;;;1.40;;
44774;SDS011;31340;51.402;0.016;2023-03-03T13:33:33;4.90;;;1.30;;
44774;SDS011;31340;51.402;0.016;2023-03-03T13:36:04;5.43;;;1.40;;
44774;SDS011;31340;51.402;0.016;2023-03-03T13:38:42;3.05;;;1.20;;
44774;SDS011;31340;51.402;0.016;2023-03-03T13:41:31;4.18;;;1.50;;
44774;SDS011;31340;51.402;0.016;2023-03-03T13:47:12;3.17;;;1.10;;
44774;SDS011;31340;51.402;0.016;2023-03-03T13:49:54;2.83;;;1.13;;
44774;SDS011;31340;51.402;0.016;2023-03-03T13:52:41;3.42;;;1.50;;
44774;SDS011;31340;51.402;0.016;2023-03-03T14:06:19;2.08;;;1.45;;
44774;SDS011;31340;51.402;0.016;2023-03-03T14:08:54;3.97;;;2.13;;
44774;SDS011;31340;51.402;0.016;2023-03-03T14:17:33;8.80;;;2.63;;
44774;SDS011;31340;51.402;0.016;2023-03-03T14:20:28;5.85;;;2.10;;
44774;SDS011;31340;51.402;0.016;2023-03-03T14:23:07;8.60;;;2.33;;
44774;SDS011;31340;51.402;0.016;2023-03-03T14:31:40;4.70;;;1.60;;
44774;SDS011;31340;51.402;0.016;2023-03-03T14:36:50;5.97;;;2.20;;
44774;SDS011;31340;51.402;0.016;2023-03-03T14:41:53;5.20;;;2.25;;
44774;SDS011;31340;51.402;0.016;2023-03-03T14:44:31;5.35;;;2.17;;
44774;SDS011;31340;51.402;0.016;2023-03-03T14:49:42;5.53;;;2.30;;
44774;SDS011;31340;51.402;0.016;2023-03-03T14:54:44;6.97;;;2.30;;
44774;SDS011;31340;51.402;0.016;2023-03-03T14:57:15;5.28;;;2.10;;
44774;SDS011;31340;51.402;0.016;2023-03-03T15:10:41;8.80;;;2.22;;
44774;SDS011;31340;51.402;0.016;2023-03-03T15:15:50;13.88;;;1.90;;
44774;SDS011;31340;51.402;0.016;2023-03-03T15:18:19;3.15;;;1.75;;
44774;SDS011;31340;51.402;0.016;2023-03-03T15:21:06;3.97;;;1.92;;
44774;SDS011;31340;51.402;0.016;2023-03-03T15:29:41;3.67;;;1.70;;
44774;SDS011;31340;51.402;0.016;2023-03-03T15:32:26;2.17;;;1.40;;
44774;SDS011;31340;51.402;0.016;2023-03-03T15:38:07;9.85;;;2.03;;
44774;SDS011;31340;51.402;0.016;2023-03-03T15:41:09;3.85;;;1.73;;
44774;SDS011;31340;51.402;0.016;2023-03-03T15:46:48;4.63;;;1.70;;
44774;SDS011;31340;51.402;0.016;2023-03-03T15:49:47;6.47;;;1.70;;
44774;SDS011;31340;51.402;0.016;2023-03-03T16:01:02;4.50;;;2.03;;
44774;SDS011;31340;51.402;0.016;2023-03-03T16:03:44;3.53;;;1.65;;
44774;SDS011;31340;51.402;0.016;2023-03-03T16:06:18;2.97;;;1.15;;
44774;SDS011;31340;51.402;0.016;2023-03-03T16:11:37;5.90;;;1.20;;
44774;SDS011;31340;51.402;0.016;2023-03-03T16:16:50;1.20;;;1.00;;
44774;SDS011;31340;51.402;0.016;2023-03-03T16:19:43;2.83;;;1.10;;
44774;SDS011;31340;51.402;0.016;2023-03-03T16:25:06;5.63;;;1.70;;
44774;SDS011;31340;51.402;0.016;2023-03-03T16:28:07;3.67;;;1.42;;
44774;SDS011;31340;51.402;0.016;2023-03-03T16:30:48;5.40;;;2.75;;
44774;SDS011;31340;51.402;0.016;2023-03-03T16:42:17;1.60;;;1.08;;
44774;SDS011;31340;51.402;0.016;2023-03-03T16:45:04;4.97;;;1.90;;
44774;SDS011;31340;51.402;0.016;2023-03-03T16:53:42;4.35;;;1.63;;
44774;SDS011;31340;51.402;0.016;2023-03-03T16:56:31;4.00;;;1.27;;
44774;SDS011;31340;51.402;0.016;2023-03-03T16:59:20;3.15;;;1.25;;
44774;SDS011;31340;51.402;0.016;2023-03-03T17:02:31;6.77;;;1.50;;
44774;SDS011;31340;51.402;0.016;2023-03-03T17:05:28;3.95;;;1.60;;
44774;SDS011;31340;51.402;0.016;2023-03-03T17:20:36;4.07;;;2.20;;
44774;SDS011;31340;51.402;0.016;2023-03-03T17:28:55;3.65;;;1.80;;
44774;SDS011;31340;51.402;0.016;2023-03-03T17:34:32;4.45;;;2.10;;
44774;SDS011;31340;51.402;0.016;2023-03-03T17:40:30;5.72;;;1.95;;
44774;SDS011;31340;51.402;0.016;2023-03-03T17:46:00;6.25;;;2.92;;
44774;SDS011;31340;51.402;0.016;2023-03-03T18:00:06;4.40;;;2.10;;
44774;SDS011;31340;51.402;0.016;2023-03-03T18:03:04;4.38;;;2.20;;
44774;SDS011;31340;51.402;0.016;2023-03-03T18:08:34;5.88;;;2.40;;
44774;SDS011;31340;51.402;0.016;2023-03-03T18:14:37;5.43;;;2.53;;
44774;SDS011;31340;51.402;0.016;2023-03-03T18:20:31;8.10;;;3.42;;
44774;SDS011;31340;51.402;0.016;2023-03-03T18:36:54;6.47;;;3.13;;
44774;SDS011;31340;51.402;0.016;2023-03-03T18:39:34;6.75;;;4.10;;
44774;SDS011;31340;51.402;0.016;2023-03-03T18:42:06;8.35;;;3.83;;
44774;SDS011;31340;51.402;0.016;2023-03-03T18:44:53;6.22;;;3.67;;
44774;SDS011;31340;51.402;0.016;2023-03-03T18:47:25;10.13;;;4.45;;
44774;SDS011;31340;51.402;0.016;2023-03-03T18:50:33;13.05;;;6.40;;
44774;SDS011;31340;51.402;0.016;2023-03-03T18:53:11;19.23;;;10.07;;
44774;SDS011;31340;51.402;0.016;2023-03-03T18:55:57;41.03;;;17.92;;
44774;SDS011;31340;51.402;0.016;2023-03-03T19:06:30;32.90;;;12.25;;
44774;SDS011;31340;51.402;0.016;2023-03-03T19:09:04;19.33;;;8.98;;
44774;SDS011;31340;51.402;0.016;2023-03-03T19:11:37;19.23;;;7.65;;
44774;SDS011;31340;51.402;0.016;2023-03-03T19:14:14;18.30;;;7.18;;
44774;SDS011;31340;51.402;0.016;2023-03-03T19:17:43;22.02;;;11.45;;
44774;SDS011;31340;51.402;0.016;2023-03-03T19:19:58;14.82;;;6.80;;
44774;SDS011;31340;51.402;0.016;2023-03-03T19:22:29;10.57;;;5.20;;
44774;SDS011;31340;51.402;0.016;2023-03-03T19:25:01;10.05;;;4.97;;
44774;SDS011;31340;51.402;0.016;2023-03-03T19:27:34;16.42;;;6.60;;
44774;SDS011;31340;51.402;0.016;2023-03-03T19:30:54;22.48;;;7.05;;
44774;SDS011;31340;51.402;0.016;2023-03-03T19:35:36;14.95;;;6.65;;
44774;SDS011;31340;51.402;0.016;2023-03-03T19:41:02;6.63;;;3.55;;
44774;SDS011;31340;51.402;0.016;2023-03-03T19:43:58;5.53;;;2.70;;
44774;SDS011;31340;51.402;0.016;2023-03-03T19:52:20;7.90;;;3.20;;
44774;SDS011;31340;51.402;0.016;2023-03-03T20:00:18;15.38;;;3.47;;
44774;SDS011;31340;51.402;0.016;2023-03-03T20:11:33;6.40;;;3.00;;
44774;SDS011;31340;51.402;0.016;2023-03-03T20:17:03;10.07;;;4.40;;
44774;SDS011;31340;51.402;0.016;2023-03-03T20:22:42;15.68;;;6.50;;
44774;SDS011;31340;51.402;0.016;2023-03-03T20:34:06;8.32;;;3.50;;
44774;SDS011;31340;51.402;0.016;2023-03-03T20:36:55;12.35;;;3.78;;
44774;SDS011;31340;51.402;0.016;2023-03-03T20:42:44;9.52;;;3.13;;
44774;SDS011;31340;51.402;0.016;2023-03-03T20:45:36;10.25;;;3.03;;
44774;SDS011;31340;51.402;0.016;2023-03-03T21:02:29;7.38;;;2.70;;
44774;SDS011;31340;51.402;0.016;2023-03-03T21:07:49;14.68;;;2.70;;
44774;SDS011;31340;51.402;0.016;2023-03-03T21:10:31;13.65;;;3.35;;
44774;SDS011;31340;51.402;0.016;2023-03-03T21:16:01;10.23;;;2.70;;
44774;SDS011;31340;51.402;0.016;2023-03-03T21:18:32;14.73;;;3.47;;
44774;SDS011;31340;51.402;0.016;2023-03-03T21:20:59;7.93;;;2.72;;
44774;SDS011;31340;51.402;0.016;2023-03-03T21:23:27;11.20;;;2.70;;
44774;SDS011;31340;51.402;0.016;2023-03-03T21:25:55;11.30;;;2.90;;
44774;SDS011;31340;51.402;0.016;2023-03-03T21:28:27;10.25;;;2.67;;
44774;SDS011;31340;51.402;0.016;2023-03-03T21:31:04;15.00;;;2.53;;
44774;SDS011;31340;51.402;0.016;2023-03-03T21:33:48;15.80;;;2.97;;
44774;SDS011;31340;51.402;0.016;2023-03-03T21:38:52;13.18;;;2.40;;
44774;SDS011;31340;51.402;0.016;2023-03-03T21:41:20;16.27;;;3.28;;
44774;SDS011;31340;51.402;0.016;2023-03-03T21:43:48;15.48;;;2.55;;
44774;SDS011;31340;51.402;0.016;2023-03-03T21:46:21;14.50;;;2.95;;
44774;SDS011;31340;51.402;0.016;2023-03-03T21:48:50;17.27;;;2.78;;
44774;SDS011;31340;51.402;0.016;2023-03-03T21:51:18;24.25;;;3.60;;
44774;SDS011;31340;51.402;0.016;2023-03-03T21:53:47;20.75;;;2.80;;
44774;SDS011;31340;51.402;0.016;2023-03-03T21:56:14;9.90;;;2.20;;
44774;SDS011;31340;51.402;0.016;2023-03-03T21:58:42;20.30;;;2.97;;
44774;SDS011;31340;51.402;0.016;2023-03-03T22:01:09;15.98;;;2.88;;